Time;durP1;ratioP1;P1;durP2;ratioP2;P2;SDS_P1;SDS_P2;PMS_P1;PMS_P2;Temp;Humidity;BMP_temperature;BMP_pressure;BME280_temperature;BME280_humidity;BME280_pressure;Samples;Min_cycle;Max_cycle;Signal;HPM_P1;HPM_P2
2023/01/29 00:01:52;;;;;;;11.13;9.97;;;;;;;1.70;64.65;94989.59;5051645;28;20730;-70
2023/01/29 00:04:18;;;;;;;11.17;9.33;;;;;;;1.59;64.29;94986.88;5050498;28;20351;-68
2023/01/29 00:06:43;;;;;;;12.03;10.03;;;;;;;1.72;64.42;94992.91;5048014;28;20248;-69
2023/01/29 00:09:10;;;;;;;11.83;10.63;;;;;;;1.69;64.06;94993.13;5049698;28;20229;-69
2023/01/29 00:11:35;;;;;;;12.47;10.83;;;;;;;1.62;64.00;95002.22;5056639;28;20283;-69
2023/01/29 00:14:01;;;;;;;12.10;10.90;;;;;;;1.54;64.96;94999.28;5055076;28;20569;-68
2023/01/29 00:16:26;;;;;;;12.10;10.40;;;;;;;1.59;64.82;94999.81;5046034;28;20217;-69
2023/01/29 00:19:18;;;;;;;12.30;10.30;;;;;;;1.60;64.61;95009.25;5051014;28;20228;-69
2023/01/29 00:21:44;;;;;;;12.47;11.13;;;;;;;1.57;64.69;95012.03;5048621;28;20249;-69
2023/01/29 00:24:10;;;;;;;11.20;10.00;;;;;;;1.56;64.95;95007.78;5050694;28;20302;-69
2023/01/29 00:26:37;;;;;;;12.77;11.00;;;;;;;1.57;64.94;95014.63;5049028;28;20186;-69
2023/01/29 00:29:03;;;;;;;11.70;10.40;;;;;;;1.63;64.30;95018.59;5047939;28;20237;-70
2023/01/29 00:31:29;;;;;;;11.73;10.53;;;;;;;1.78;64.29;95015.03;5047234;28;20224;-68
2023/01/29 00:33:55;;;;;;;13.70;11.60;;;;;;;1.57;64.71;95014.63;5055275;28;20230;-69
2023/01/29 00:36:22;;;;;;;12.37;10.73;;;;;;;1.57;64.97;95019.81;5051306;28;20228;-70
2023/01/29 00:38:57;;;;;;;11.90;10.40;;;;;;;1.77;64.52;95015.97;5050814;28;20185;-70
2023/01/29 00:46:53;;;;;;;11.53;10.13;;;;;;;1.79;64.64;95008.06;5050049;28;20243;-69
2023/01/29 00:49:19;;;;;;;11.63;9.93;;;;;;;1.83;64.08;95014.75;5044664;28;20213;-69
2023/01/29 00:52:22;;;;;;;9.83;8.50;;;;;;;1.61;64.10;95010.94;5046716;28;20221;-69
2023/01/29 00:54:30;;;;;;;10.73;9.57;;;;;;;1.59;64.72;95017.13;5048940;28;20248;-68
2023/01/29 00:56:55;;;;;;;10.03;8.93;;;;;;;1.56;64.72;95018.16;5049478;28;20202;-70
2023/01/29 00:59:20;;;;;;;10.47;9.13;;;;;;;1.61;65.01;95007.50;5051439;28;20300;-69
2023/01/29 01:04:30;;;;;;;10.27;9.27;;;;;;;1.51;65.93;95012.44;5049338;28;20259;-71
2023/01/29 01:06:55;;;;;;;12.00;10.63;;;;;;;1.42;66.47;95010.44;5050728;28;20252;-71
2023/01/29 01:12:05;;;;;;;12.07;9.97;;;;;;;1.63;65.39;95008.22;5049351;28;20347;-70
2023/01/29 01:14:33;;;;;;;10.77;9.67;;;;;;;1.60;66.17;95009.25;5031502;28;20349;-70
2023/01/29 01:16:59;;;;;;;11.47;9.47;;;;;;;1.59;66.36;95007.59;5041126;28;20229;-71
2023/01/29 01:19:24;;;;;;;11.63;10.43;;;;;;;1.57;66.54;95008.63;5048892;28;20235;-70
2023/01/29 01:21:50;;;;;;;11.87;10.60;;;;;;;1.58;66.90;95003.34;5048668;28;20232;-70
2023/01/29 01:24:15;;;;;;;11.80;9.93;;;;;;;1.59;66.80;95007.59;5053378;28;20219;-71
2023/01/29 01:26:41;;;;;;;11.70;10.17;;;;;;;1.64;66.70;95000.34;5049698;28;20649;-70
2023/01/29 01:29:07;;;;;;;11.43;9.80;;;;;;;1.63;66.34;95006.50;5049065;28;20283;-69
2023/01/29 01:31:32;;;;;;;10.23;9.17;;;;;;;1.50;67.18;95001.25;5051292;28;20233;-70
2023/01/29 01:33:57;;;;;;;12.00;9.90;;;;;;;1.38;67.52;95004.59;5054190;28;20227;-69
2023/01/29 01:36:23;;;;;;;10.80;8.93;;;;;;;1.42;67.23;95006.09;5049857;28;20222;-68
2023/01/29 01:38:48;;;;;;;10.80;9.80;;;;;;;1.36;66.98;95010.81;5054079;28;20193;-69
2023/01/29 01:41:18;;;;;;;10.07;9.00;;;;;;;1.21;67.81;95013.44;5051063;28;20214;-70
2023/01/29 01:43:57;;;;;;;11.70;9.17;;;;;;;1.38;67.27;95007.19;5054196;28;20225;-69
2023/01/29 01:46:24;;;;;;;11.73;9.93;;;;;;;1.51;66.90;95007.25;5050191;28;20220;-70
2023/01/29 01:48:58;;;;;;;10.27;9.17;;;;;;;1.42;67.06;95013.84;5048117;28;20268;-70
2023/01/29 01:51:25;;;;;;;9.23;8.33;;;;;;;1.18;67.83;95013.63;5053211;28;20245;-69
2023/01/29 01:53:58;;;;;;;10.90;9.50;;;;;;;1.24;68.17;95007.22;5050730;28;20194;-71
2023/01/29 01:56:37;;;;;;;10.67;9.57;;;;;;;1.29;67.91;95015.56;5053963;28;20276;-70
2023/01/29 01:59:06;;;;;;;11.30;9.70;;;;;;;1.16;68.55;95022.41;5054949;28;20311;-70
2023/01/29 02:01:32;;;;;;;10.77;9.67;;;;;;;1.06;69.43;95016.97;5051446;28;20213;-69
2023/01/29 02:09:38;;;;;;;10.47;9.43;;;;;;;1.27;67.97;95031.19;5049979;28;20223;-70
2023/01/29 02:12:10;;;;;;;10.40;9.30;;;;;;;1.03;68.33;95019.75;5049392;28;20327;-71
2023/01/29 02:14:38;;;;;;;9.03;8.03;;;;;;;1.19;68.40;95019.63;5057611;28;20189;-70
2023/01/29 02:17:13;;;;;;;9.43;8.33;;;;;;;1.24;68.16;95020.19;5055116;28;20225;-68
2023/01/29 02:19:50;;;;;;;10.00;9.07;;;;;;;1.01;69.09;95027.59;5052205;28;20228;-70
2023/01/29 02:22:43;;;;;;;9.40;8.40;;;;;;;1.11;69.21;95022.69;5055772;28;20233;-70
2023/01/29 02:25:21;;;;;;;9.90;8.63;;;;;;;0.81;70.13;95031.41;5049395;28;20249;-70
2023/01/29 02:28:14;;;;;;;11.07;9.03;;;;;;;0.89;70.31;95038.72;5050406;28;20351;-70
2023/01/29 02:30:49;;;;;;;10.33;9.23;;;;;;;0.97;69.90;95046.84;5049963;28;20303;-70
2023/01/29 02:33:20;;;;;;;9.03;8.13;;;;;;;1.08;69.70;95034.06;5056827;28;20255;-69
2023/01/29 02:35:56;;;;;;;10.03;8.97;;;;;;;1.07;69.87;95042.78;5049646;28;20198;-69
2023/01/29 02:38:43;;;;;;;9.67;8.67;;;;;;;0.94;70.10;95053.97;5059426;28;20213;-69
2023/01/29 02:41:27;;;;;;;10.73;9.57;;;;;;;0.96;70.29;95050.34;5066846;28;20225;-69
2023/01/29 02:44:15;;;;;;;11.57;9.57;;;;;;;0.88;70.94;95055.16;5050865;28;20217;-69
2023/01/29 02:46:56;;;;;;;10.60;9.40;;;;;;;0.89;70.78;95056.84;5051930;28;20216;-69
2023/01/29 02:49:35;;;;;;;11.60;9.50;;;;;;;0.99;70.75;95059.69;5053979;28;20240;-68
2023/01/29 02:52:11;;;;;;;10.30;9.30;;;;;;;1.11;70.27;95056.34;5050604;28;20275;-69
2023/01/29 02:54:45;;;;;;;11.03;9.20;;;;;;;1.18;70.05;95060.25;5048099;28;20221;-69
2023/01/29 02:57:21;;;;;;;10.20;9.20;;;;;;;1.18;69.49;95056.84;5052569;28;20216;-70
2023/01/29 02:59:57;;;;;;;10.63;9.53;;;;;;;1.06;70.08;95051.44;5059130;28;20196;-68
2023/01/29 03:02:47;;;;;;;11.43;10.23;;;;;;;0.99;70.83;95050.19;5049230;28;20275;-68
2023/01/29 03:05:20;;;;;;;11.47;9.83;;;;;;;0.94;71.09;95052.22;5043756;28;20232;-68
2023/01/29 03:07:55;;;;;;;11.53;10.30;;;;;;;0.86;71.60;95055.25;5051807;28;20250;-69
2023/01/29 03:10:26;;;;;;;12.50;11.20;;;;;;;0.84;71.92;95049.34;5051141;28;20307;-69
2023/01/29 03:13:14;;;;;;;10.67;9.57;;;;;;;1.14;71.00;95058.75;5048522;28;20228;-69
2023/01/29 03:15:46;;;;;;;11.90;10.37;;;;;;;1.13;70.61;95048.50;5050570;28;20213;-69
2023/01/29 03:18:16;;;;;;;10.73;9.47;;;;;;;1.09;70.13;95045.25;5045377;28;20255;-68
2023/01/29 03:20:47;;;;;;;9.53;8.63;;;;;;;1.03;70.61;95056.81;5056402;28;20224;-69
2023/01/29 03:32:05;;;;;;;8.37;7.57;;;;;;;0.95;70.26;95059.03;5052104;28;20275;-70
2023/01/29 03:34:40;;;;;;;8.07;7.27;;;;;;;0.98;69.99;95063.22;5049648;28;20237;-70
2023/01/29 03:37:31;;;;;;;8.17;7.37;;;;;;;0.78;70.15;95070.41;5028772;28;20224;-70
2023/01/29 03:39:57;;;;;;;7.70;6.90;;;;;;;0.91;69.83;95064.50;5047217;28;20240;-70
2023/01/29 03:42:28;;;;;;;8.10;7.30;;;;;;;0.82;70.14;95064.13;5048925;28;20286;-69
2023/01/29 03:45:14;;;;;;;7.07;6.47;;;;;;;0.87;69.76;95063.84;5049596;28;20221;-69
2023/01/29 03:50:57;;;;;;;7.20;6.50;;;;;;;0.86;69.65;95060.44;5054442;28;20247;-70
2023/01/29 03:53:42;;;;;;;7.53;6.77;;;;;;;0.62;70.42;95056.72;5055946;28;20204;-70
2023/01/29 03:56:24;;;;;;;7.40;6.70;;;;;;;0.78;71.10;95054.88;5053302;28;20216;-70
2023/01/29 03:58:59;;;;;;;7.60;6.80;;;;;;;0.78;70.75;95056.66;5053145;28;20213;-69
2023/01/29 04:01:39;;;;;;;7.63;6.60;;;;;;;0.94;71.13;95061.75;5072824;28;20248;-70
2023/01/29 04:04:12;;;;;;;7.83;7.03;;;;;;;0.88;71.31;95061.19;5046783;28;20278;-69
2023/01/29 04:06:42;;;;;;;7.50;6.77;;;;;;;0.99;71.08;95063.13;5044906;28;20232;-69
2023/01/29 04:09:22;;;;;;;7.27;6.50;;;;;;;1.09;70.30;95061.63;5048748;28;20309;-69
2023/01/29 04:11:57;;;;;;;7.20;6.50;;;;;;;1.11;70.26;95058.94;5050561;28;20213;-69
2023/01/29 04:14:22;;;;;;;8.90;8.00;;;;;;;0.59;71.99;95072.44;5048515;28;20308;-70
2023/01/29 04:16:52;;;;;;;7.97;7.17;;;;;;;0.83;71.69;95063.22;5047977;28;20308;-69
2023/01/29 04:19:44;;;;;;;8.13;7.33;;;;;;;0.79;71.73;95069.47;5047444;28;20229;-70
2023/01/29 04:22:25;;;;;;;7.63;6.83;;;;;;;0.85;71.36;95074.28;5052771;28;20316;-70
2023/01/29 04:24:50;;;;;;;7.67;6.87;;;;;;;0.98;71.04;95073.56;5055584;28;20216;-69
2023/01/29 04:27:44;;;;;;;7.43;6.73;;;;;;;0.81;71.04;95072.81;5049582;28;20229;-70
2023/01/29 04:30:32;;;;;;;7.40;6.57;;;;;;;0.88;71.81;95074.13;5048893;28;20240;-70
2023/01/29 04:33:39;;;;;;;7.13;6.43;;;;;;;0.95;70.97;95073.75;5049427;28;20208;-69
2023/01/29 04:36:25;;;;;;;6.40;5.80;;;;;;;1.03;70.54;95082.72;5045889;28;20296;-69
2023/01/29 04:39:30;;;;;;;6.77;6.13;;;;;;;0.97;70.67;95080.50;5047232;28;20197;-69
2023/01/29 04:42:03;;;;;;;6.83;6.23;;;;;;;0.86;70.93;95075.16;4995060;28;20288;-68
2023/01/29 04:44:42;;;;;;;6.07;5.47;;;;;;;0.76;71.19;95080.03;4996852;28;20198;-69
2023/01/29 04:47:25;;;;;;;6.30;5.70;;;;;;;0.79;70.93;95079.00;5002192;28;20222;-69
2023/01/29 04:49:56;;;;;;;7.07;6.40;;;;;;;0.82;71.03;95078.81;5018959;28;20271;-70
2023/01/29 04:52:36;;;;;;;6.83;6.13;;;;;;;0.70;71.12;95084.75;5000111;28;20232;-69
2023/01/29 04:55:39;;;;;;;6.80;6.20;;;;;;;0.85;70.71;95082.06;4999330;28;20306;-69
2023/01/29 04:58:41;;;;;;;8.10;6.10;;;;;;;0.87;70.74;95084.56;4996334;28;20226;-70
2023/01/29 05:01:12;;;;;;;6.27;5.67;;;;;;;0.77;70.81;95086.03;5001650;28;20226;-70
2023/01/29 05:03:41;;;;;;;7.30;6.60;;;;;;;0.90;70.52;95092.13;4992014;28;20258;-69
2023/01/29 05:06:08;;;;;;;6.53;5.93;;;;;;;0.86;70.58;95090.69;4995634;28;20195;-70
2023/01/29 05:08:37;;;;;;;6.70;5.87;;;;;;;0.86;70.23;95086.31;4996281;28;20214;-70
2023/01/29 05:11:04;;;;;;;6.70;6.00;;;;;;;0.79;70.69;95087.59;5001978;28;20284;-69
2023/01/29 05:13:31;;;;;;;6.43;5.50;;;;;;;0.98;70.33;95087.34;4992934;28;20249;-69
2023/01/29 05:16:03;;;;;;;6.03;5.53;;;;;;;0.60;71.09;95100.78;4997267;28;20233;-70
2023/01/29 05:18:30;;;;;;;5.33;4.83;;;;;;;0.62;71.44;95100.72;5044619;28;20229;-69
2023/01/29 05:20:58;;;;;;;6.93;6.23;;;;;;;0.62;70.99;95096.38;5045672;28;20236;-70
2023/01/29 05:23:24;;;;;;;5.97;5.40;;;;;;;0.62;71.32;95098.97;5051840;28;20194;-70
2023/01/29 05:25:51;;;;;;;6.37;5.77;;;;;;;0.68;70.93;95096.94;5052106;28;20224;-69
2023/01/29 05:28:17;;;;;;;6.47;5.83;;;;;;;0.67;71.09;95101.28;5051188;28;20240;-69
2023/01/29 05:30:47;;;;;;;6.37;5.77;;;;;;;0.78;70.98;95106.66;5052391;28;20229;-69
2023/01/29 05:33:19;;;;;;;6.37;5.77;;;;;;;0.68;70.93;95108.13;5048987;28;20216;-68
2023/01/29 05:35:45;;;;;;;7.07;6.40;;;;;;;0.62;70.86;95108.47;5053351;28;20223;-68
2023/01/29 05:38:11;;;;;;;6.77;6.07;;;;;;;0.70;70.85;95115.81;5056179;28;20225;-69
2023/01/29 05:40:37;;;;;;;6.17;5.57;;;;;;;0.42;71.39;95109.63;5050844;28;20283;-69
2023/01/29 05:43:03;;;;;;;5.93;5.43;;;;;;;0.64;71.35;95111.78;5051679;28;20221;-70
2023/01/29 05:45:28;;;;;;;6.80;6.20;;;;;;;0.72;70.92;95108.75;5056132;28;20278;-69
2023/01/29 05:47:58;;;;;;;6.23;5.73;;;;;;;0.70;70.16;95116.63;5051677;28;20209;-68
2023/01/29 05:50:25;;;;;;;6.87;6.17;;;;;;;0.43;71.44;95114.72;5051563;28;20225;-68
2023/01/29 05:52:59;;;;;;;6.87;6.17;;;;;;;0.66;71.36;95107.38;5051620;28;20225;-69
2023/01/29 05:55:25;;;;;;;7.17;6.47;;;;;;;0.26;72.65;95117.41;5049285;28;20268;-69
2023/01/29 05:57:51;;;;;;;6.30;5.70;;;;;;;0.30;72.65;95123.28;5036135;28;20228;-68
2023/01/29 06:00:17;;;;;;;6.90;6.20;;;;;;;0.52;72.12;95121.09;5056887;28;20221;-68
2023/01/29 06:02:42;;;;;;;6.33;5.70;;;;;;;0.61;72.66;95123.16;5051356;28;20701;-68
2023/01/29 06:05:08;;;;;;;6.30;5.70;;;;;;;0.73;71.49;95121.63;5049372;28;20240;-69
2023/01/29 06:07:34;;;;;;;6.73;6.10;;;;;;;0.58;71.94;95131.09;5049346;28;20256;-69
2023/01/29 06:10:00;;;;;;;7.60;6.80;;;;;;;0.48;72.77;95131.72;5051013;28;20272;-70
2023/01/29 06:12:26;;;;;;;6.87;6.17;;;;;;;0.61;72.26;95132.66;5050077;28;20225;-68
2023/01/29 06:14:51;;;;;;;7.47;6.77;;;;;;;0.62;72.44;95134.34;5055946;28;20189;-68
2023/01/29 06:17:17;;;;;;;7.00;6.27;;;;;;;0.71;72.02;95143.34;5051597;28;20201;-69
2023/01/29 06:19:42;;;;;;;7.77;6.97;;;;;;;0.94;71.71;95149.78;5055934;28;20213;-68
2023/01/29 06:22:08;;;;;;;6.67;6.07;;;;;;;1.07;71.41;95138.59;5054306;28;20237;-70
2023/01/29 06:24:33;;;;;;;8.07;7.13;;;;;;;1.04;71.13;95156.03;5052924;28;20208;-69
2023/01/29 06:26:59;;;;;;;6.80;6.10;;;;;;;1.13;70.79;95155.50;5052607;28;20285;-69
2023/01/29 06:29:24;;;;;;;7.77;7.03;;;;;;;1.07;70.50;95155.88;5054774;28;20259;-69
2023/01/29 06:31:49;;;;;;;7.47;6.77;;;;;;;0.92;71.21;95167.16;5053331;28;20236;-68
2023/01/29 06:34:15;;;;;;;7.43;6.73;;;;;;;0.86;71.25;95157.97;5053082;28;20318;-68
2023/01/29 06:36:41;;;;;;;7.40;6.70;;;;;;;0.99;71.34;95165.84;5050556;28;20213;-68
2023/01/29 06:39:07;;;;;;;8.27;7.47;;;;;;;0.84;71.35;95162.41;5045513;28;20194;-68
2023/01/29 06:41:33;;;;;;;8.07;7.13;;;;;;;0.89;71.83;95165.56;5052541;28;20283;-69
2023/01/29 06:43:58;;;;;;;8.40;7.63;;;;;;;0.86;71.60;95168.34;5050966;28;20305;-69
2023/01/29 06:46:24;;;;;;;8.60;7.73;;;;;;;0.81;71.75;95165.19;5055380;28;20239;-69
2023/01/29 06:48:49;;;;;;;8.70;7.90;;;;;;;0.69;72.49;95174.47;5055120;28;20298;-69
2023/01/29 06:51:15;;;;;;;9.93;8.93;;;;;;;0.49;73.41;95174.78;5049247;28;20237;-69
2023/01/29 06:53:40;;;;;;;8.73;7.93;;;;;;;0.99;72.22;95179.66;5058098;28;20192;-69
2023/01/29 06:56:06;;;;;;;8.33;7.53;;;;;;;1.29;70.67;95186.53;5049508;28;20769;-70
2023/01/29 06:58:32;;;;;;;9.57;8.60;;;;;;;1.23;70.91;95190.31;5051785;28;20769;-71
2023/01/29 07:01:09;;;;;;;8.30;7.43;;;;;;;1.06;70.96;95190.47;5055188;28;20221;-71
2023/01/29 07:03:34;;;;;;;9.70;8.70;;;;;;;0.98;72.00;95177.13;5055499;28;20228;-68
2023/01/29 07:06:00;;;;;;;9.60;8.60;;;;;;;0.80;72.17;95179.88;5052675;28;20185;-70
2023/01/29 07:08:27;;;;;;;9.20;8.30;;;;;;;1.07;71.64;95190.38;5056011;28;20256;-70
2023/01/29 07:10:57;;;;;;;8.57;7.67;;;;;;;1.22;71.19;95199.00;5048424;28;20218;-70
2023/01/29 07:13:22;;;;;;;9.23;8.10;;;;;;;1.36;69.84;95192.97;5051042;28;20214;-70
2023/01/29 07:15:47;;;;;;;9.30;8.40;;;;;;;1.38;70.57;95198.09;5049696;28;20217;-69
2023/01/29 07:18:13;;;;;;;7.97;7.17;;;;;;;1.32;70.40;95205.28;5045978;28;20228;-70
2023/01/29 07:20:40;;;;;;;8.73;7.83;;;;;;;0.97;70.81;95202.19;5046044;28;20305;-68
2023/01/29 07:23:07;;;;;;;8.93;8.10;;;;;;;1.21;71.33;95202.50;5048418;28;20224;-69
2023/01/29 07:25:33;;;;;;;9.73;8.83;;;;;;;1.10;71.01;95203.16;5050680;28;20221;-71
2023/01/29 07:28:00;;;;;;;9.87;8.87;;;;;;;0.98;72.57;95208.19;5048592;28;20249;-71
2023/01/29 07:30:26;;;;;;;9.33;8.43;;;;;;;1.22;71.39;95200.75;5050587;28;20300;-70
2023/01/29 07:32:51;;;;;;;9.33;8.40;;;;;;;1.40;70.25;95201.44;5054877;28;20192;-70
2023/01/29 07:35:17;;;;;;;9.90;8.90;;;;;;;0.99;71.14;95204.69;5055133;28;20255;-69
2023/01/29 07:37:42;;;;;;;9.73;8.73;;;;;;;1.43;70.83;95214.19;5061857;28;20217;-69
2023/01/29 07:40:10;;;;;;;10.53;9.33;;;;;;;1.11;70.76;95214.34;5046274;28;20230;-69
2023/01/29 07:42:37;;;;;;;9.67;8.70;;;;;;;1.36;70.42;95210.28;5048226;28;20270;-69
2023/01/29 07:45:04;;;;;;;9.20;8.30;;;;;;;1.47;69.81;95213.06;5055071;28;20235;-69
2023/01/29 07:47:30;;;;;;;10.63;9.63;;;;;;;1.34;70.50;95215.59;5050749;28;20263;-70
2023/01/29 07:49:55;;;;;;;10.93;9.20;;;;;;;1.51;69.70;95222.34;5049946;28;20229;-71
2023/01/29 07:52:20;;;;;;;10.90;9.47;;;;;;;1.37;69.45;95220.56;5048933;28;20221;-71
2023/01/29 07:54:46;;;;;;;10.80;9.67;;;;;;;1.44;69.92;95221.03;5055756;28;20221;-71
2023/01/29 07:57:11;;;;;;;10.90;9.73;;;;;;;1.61;69.13;95220.03;5046849;28;20224;-69
2023/01/29 07:59:37;;;;;;;9.90;8.90;;;;;;;1.56;69.01;95227.25;5047284;28;20220;-69
2023/01/29 08:02:02;;;;;;;9.10;8.20;;;;;;;1.22;70.58;95222.31;5050821;28;20220;-69
2023/01/29 08:04:28;;;;;;;10.63;9.53;;;;;;;1.52;70.16;95224.84;5053522;28;20228;-68
2023/01/29 08:06:53;;;;;;;11.60;10.33;;;;;;;1.19;70.58;95232.84;5047337;28;20221;-67
2023/01/29 08:09:18;;;;;;;11.37;10.17;;;;;;;1.20;71.43;95229.31;5050994;28;20228;-69
2023/01/29 08:11:44;;;;;;;10.50;9.40;;;;;;;1.34;71.06;95236.31;5053479;28;20350;-69
2023/01/29 08:14:09;;;;;;;12.10;9.70;;;;;;;1.57;70.23;95229.75;5049148;28;20251;-69
2023/01/29 08:16:35;;;;;;;10.67;9.67;;;;;;;1.51;70.36;95232.72;5045446;28;20309;-69
2023/01/29 08:19:01;;;;;;;10.43;9.33;;;;;;;1.48;70.59;95235.47;5050049;28;20217;-68
2023/01/29 08:21:26;;;;;;;11.30;10.10;;;;;;;1.22;71.26;95235.25;5047027;28;20233;-69
2023/01/29 08:23:52;;;;;;;11.10;9.90;;;;;;;1.43;70.14;95233.16;5050826;28;20208;-69
2023/01/29 08:26:17;;;;;;;11.43;10.33;;;;;;;1.70;69.83;95238.44;5047585;28;20189;-69
2023/01/29 08:28:43;;;;;;;10.43;9.33;;;;;;;1.58;69.25;95234.00;5052485;28;20232;-67
2023/01/29 08:31:17;;;;;;;10.70;9.67;;;;;;;1.27;69.11;95240.16;5035129;28;20321;-69
2023/01/29 08:33:42;;;;;;;10.80;9.70;;;;;;;1.41;69.77;95245.38;5043901;28;20262;-68
2023/01/29 08:36:08;;;;;;;11.87;10.63;;;;;;;1.40;68.93;95243.72;5047646;28;20263;-68
2023/01/29 08:38:34;;;;;;;11.37;10.17;;;;;;;0.94;69.81;95236.03;5049988;28;20185;-68
2023/01/29 08:40:59;;;;;;;11.53;10.33;;;;;;;1.20;70.19;95247.44;5050474;28;20224;-69
2023/01/29 08:43:25;;;;;;;10.83;9.43;;;;;;;1.24;69.56;95246.38;5052608;28;20217;-69
2023/01/29 08:45:50;;;;;;;10.60;9.50;;;;;;;1.26;69.08;95252.28;5051955;28;20243;-67
2023/01/29 08:48:16;;;;;;;11.57;10.40;;;;;;;1.47;68.78;95247.63;5047579;28;20224;-68
2023/01/29 08:50:41;;;;;;;11.80;9.47;;;;;;;1.69;68.00;95257.53;5049772;28;20181;-69
2023/01/29 08:53:07;;;;;;;10.53;9.47;;;;;;;1.63;67.48;95252.72;5046230;28;20224;-66
2023/01/29 08:55:38;;;;;;;9.90;8.90;;;;;;;1.74;67.15;95268.47;5047407;28;20218;-69
2023/01/29 08:58:05;;;;;;;9.97;8.93;;;;;;;1.54;67.09;95276.56;5048830;28;20220;-69
2023/01/29 09:00:32;;;;;;;10.73;9.67;;;;;;;1.56;67.67;95271.31;5044696;28;20225;-69
2023/01/29 09:02:59;;;;;;;11.97;9.63;;;;;;;1.49;67.45;95269.06;5048180;28;20404;-69
2023/01/29 09:05:25;;;;;;;11.20;10.10;;;;;;;1.58;67.30;95274.63;5051798;28;20271;-69
2023/01/29 09:07:50;;;;;;;12.57;11.27;;;;;;;1.54;67.39;95277.41;5051052;28;20317;-69
2023/01/29 09:10:16;;;;;;;12.27;10.60;;;;;;;1.71;67.58;95283.34;5032204;28;20244;-68
2023/01/29 09:12:41;;;;;;;11.83;10.63;;;;;;;1.77;66.99;95275.22;5052079;28;20321;-68
2023/01/29 09:15:07;;;;;;;12.07;10.37;;;;;;;1.89;66.19;95260.66;5049366;28;20189;-69
2023/01/29 09:17:33;;;;;;;11.77;10.23;;;;;;;1.71;66.59;95263.47;5056376;28;20208;-69
2023/01/29 09:19:58;;;;;;;12.60;10.40;;;;;;;1.85;66.43;95273.00;5053575;28;20217;-69
2023/01/29 09:22:24;;;;;;;11.33;9.73;;;;;;;1.95;65.42;95266.34;5052364;28;20263;-69
2023/01/29 09:24:50;;;;;;;11.73;10.47;;;;;;;1.72;65.77;95266.88;5061823;28;20216;-69
2023/01/29 09:27:15;;;;;;;12.37;10.50;;;;;;;1.81;66.09;95265.47;5049386;28;20228;-69
2023/01/29 09:29:40;;;;;;;12.97;10.87;;;;;;;1.31;67.66;95263.22;5056204;28;20204;-70
2023/01/29 09:32:06;;;;;;;11.57;10.37;;;;;;;1.59;66.90;95269.38;5056019;28;20232;-68
2023/01/29 09:34:31;;;;;;;14.30;11.73;;;;;;;1.22;68.51;95266.34;5050233;28;20309;-68
2023/01/29 09:36:57;;;;;;;12.83;11.57;;;;;;;1.44;68.49;95267.66;5050982;28;20229;-67
2023/01/29 09:39:22;;;;;;;12.57;11.27;;;;;;;1.47;67.94;95262.31;5051640;28;20225;-67
2023/01/29 09:42:25;;;;;;;12.43;11.13;;;;;;;1.50;67.86;95262.97;5050327;28;20190;-66
2023/01/29 09:45:04;;;;;;;12.53;10.93;;;;;;;1.51;67.22;95266.41;5053080;28;20332;-68
2023/01/29 09:47:34;;;;;;;13.00;11.60;;;;;;;1.69;66.93;95262.72;5066926;28;20210;-68
2023/01/29 09:50:07;;;;;;;11.73;10.53;;;;;;;1.64;66.49;95254.38;5045981;28;20304;-69
2023/01/29 09:52:41;;;;;;;12.63;11.33;;;;;;;1.60;66.07;95252.88;5049745;28;20279;-68
2023/01/29 09:55:25;;;;;;;12.53;11.27;;;;;;;1.52;66.96;95250.78;5052485;28;20247;-69
2023/01/29 09:57:53;;;;;;;12.23;10.93;;;;;;;1.74;66.74;95249.47;5054156;28;20231;-68
2023/01/29 10:00:27;;;;;;;12.43;10.30;;;;;;;1.67;67.06;95251.59;5049449;28;20222;-68
2023/01/29 10:03:00;;;;;;;11.93;10.60;;;;;;;1.78;66.06;95245.75;5055781;28;20326;-67
2023/01/29 10:05:34;;;;;;;12.40;11.10;;;;;;;1.86;65.91;95253.06;5050808;28;20197;-68
2023/01/29 10:08:05;;;;;;;12.60;11.30;;;;;;;1.91;65.31;95241.50;5056716;28;20236;-68
2023/01/29 10:10:33;;;;;;;12.40;11.10;;;;;;;1.81;65.80;95239.56;5049420;28;20229;-68
2023/01/29 10:13:02;;;;;;;12.00;10.67;;;;;;;1.90;66.15;95236.41;5053096;28;20229;-68
2023/01/29 10:15:27;;;;;;;11.80;10.17;;;;;;;1.85;66.36;95241.06;5051174;28;20259;-67
2023/01/29 10:18:30;;;;;;;11.70;10.37;;;;;;;1.61;67.08;95239.00;5050857;28;20202;-67
2023/01/29 10:21:03;;;;;;;12.73;11.03;;;;;;;1.77;66.16;95233.72;5044946;28;20614;-68
2023/01/29 10:23:37;;;;;;;12.43;11.10;;;;;;;1.73;66.30;95240.03;5048810;28;20244;-67
2023/01/29 10:26:02;;;;;;;13.20;11.37;;;;;;;1.88;65.59;95226.13;5047851;28;20218;-68
2023/01/29 10:28:45;;;;;;;12.83;11.30;;;;;;;1.86;66.30;95221.97;5050297;28;20235;-68
2023/01/29 10:31:26;;;;;;;14.77;13.10;;;;;;;2.09;65.48;95215.38;5048426;28;20256;-68
2023/01/29 10:34:10;;;;;;;12.63;11.00;;;;;;;2.06;64.91;95224.16;5046342;28;20236;-67
2023/01/29 10:36:42;;;;;;;14.10;12.60;;;;;;;2.13;65.13;95214.22;5059314;28;20307;-67
2023/01/29 10:39:18;;;;;;;14.00;12.37;;;;;;;2.09;65.13;95208.41;5048031;28;20193;-68
2023/01/29 10:42:02;;;;;;;14.13;11.97;;;;;;;1.77;65.52;95218.19;5051648;28;20211;-67
2023/01/29 10:45:02;;;;;;;15.70;13.10;;;;;;;1.65;66.67;95222.34;5047660;28;20217;-67
2023/01/29 10:47:33;;;;;;;14.50;12.20;;;;;;;1.89;66.25;95221.78;5053476;28;20308;-67
2023/01/29 10:50:23;;;;;;;14.00;12.50;;;;;;;1.53;66.84;95221.31;5046304;28;20233;-67
2023/01/29 10:53:07;;;;;;;15.83;13.23;;;;;;;1.65;66.67;95219.75;5052426;28;20222;-67
2023/01/29 10:55:54;;;;;;;15.33;13.37;;;;;;;1.65;66.31;95214.56;5062332;28;20225;-67
2023/01/29 10:58:33;;;;;;;15.10;12.67;;;;;;;1.70;66.13;95215.13;5047451;28;20228;-67
2023/01/29 11:00:59;;;;;;;16.47;13.20;;;;;;;1.62;66.92;95211.31;5050494;28;20237;-68
2023/01/29 11:03:31;;;;;;;17.00;13.83;;;;;;;1.78;66.43;95209.47;5047898;28;20220;-68
2023/01/29 11:06:16;;;;;;;15.83;13.73;;;;;;;1.60;66.76;95213.16;5048827;28;20209;-67
2023/01/29 11:09:03;;;;;;;17.57;13.80;;;;;;;1.59;66.77;95214.09;5051916;28;20225;-68
2023/01/29 11:11:35;;;;;;;15.63;13.50;;;;;;;1.62;66.17;95206.97;5047099;28;20225;-68
2023/01/29 11:14:06;;;;;;;16.50;13.80;;;;;;;1.77;66.14;95203.44;5049822;28;20217;-68
2023/01/29 11:16:40;;;;;;;14.60;12.40;;;;;;;2.05;65.25;95193.13;5047378;28;20213;-68
2023/01/29 11:19:05;;;;;;;16.80;13.93;;;;;;;1.68;66.46;95192.81;5045185;28;20213;-67
2023/01/29 11:21:31;;;;;;;17.77;14.20;;;;;;;1.82;66.00;95186.75;5046501;28;20233;-69
2023/01/29 11:24:12;;;;;;;15.33;13.67;;;;;;;2.02;66.05;95178.59;5048135;28;20192;-69
2023/01/29 11:26:41;;;;;;;16.83;13.50;;;;;;;1.75;66.28;95184.56;5055670;28;20197;-68
2023/01/29 11:29:26;;;;;;;17.17;14.67;;;;;;;1.91;66.07;95178.44;5047712;28;20237;-68
2023/01/29 11:31:52;;;;;;;15.97;13.27;;;;;;;1.93;65.82;95172.22;5047258;28;20232;-68
2023/01/29 11:34:20;;;;;;;15.63;13.87;;;;;;;2.20;65.44;95179.19;5050754;28;20251;-69
2023/01/29 11:37:02;;;;;;;16.47;13.60;;;;;;;2.24;65.15;95179.84;5052542;28;20271;-70
2023/01/29 11:39:30;;;;;;;17.97;14.27;;;;;;;2.20;65.12;95164.47;5048294;28;20267;-69
2023/01/29 11:42:01;;;;;;;16.97;13.23;;;;;;;2.23;65.07;95162.63;5051483;28;20254;-67
2023/01/29 11:44:32;;;;;;;15.97;12.80;;;;;;;2.15;64.83;95158.72;5052756;28;20189;-69
2023/01/29 11:47:09;;;;;;;16.33;13.40;;;;;;;2.26;64.69;95155.47;5050129;28;20214;-68
2023/01/29 11:49:36;;;;;;;15.43;13.77;;;;;;;2.23;64.28;95163.44;5050635;28;20328;-69
2023/01/29 11:52:06;;;;;;;15.97;14.07;;;;;;;2.30;64.27;95158.69;5052135;28;20214;-69
2023/01/29 11:54:58;;;;;;;17.10;13.50;;;;;;;2.31;63.70;95157.75;5047728;28;20239;-69
2023/01/29 11:57:26;;;;;;;16.37;12.93;;;;;;;2.52;64.19;95152.97;5050236;28;20243;-70
2023/01/29 11:59:54;;;;;;;16.53;13.97;;;;;;;2.68;63.27;95151.03;5045510;28;20276;-68
2023/01/29 12:02:30;;;;;;;17.10;14.33;;;;;;;2.47;64.26;95145.47;5043546;28;20267;-69
2023/01/29 12:05:14;;;;;;;16.87;14.57;;;;;;;2.41;64.53;95151.06;5045581;28;20244;-73
2023/01/29 12:07:43;;;;;;;19.47;14.03;;;;;;;2.49;64.27;95146.19;5044754;28;20283;-69
2023/01/29 12:10:28;;;;;;;16.83;14.07;;;;;;;2.53;63.87;95150.25;5043667;28;20640;-68
2023/01/29 12:13:20;;;;;;;17.70;14.03;;;;;;;2.38;63.82;95141.72;5045665;28;20315;-68
2023/01/29 12:15:46;;;;;;;18.23;13.80;;;;;;;2.49;63.41;95142.78;5039782;28;20222;-68
2023/01/29 12:18:37;;;;;;;15.63;13.77;;;;;;;2.36;63.53;95148.75;5045315;28;20249;-69
2023/01/29 12:21:08;;;;;;;16.23;13.10;;;;;;;2.42;63.62;95145.75;5051527;28;20294;-68
2023/01/29 12:23:51;;;;;;;15.50;13.63;;;;;;;2.44;63.80;95150.84;5044596;28;20205;-69